Terminal Aerodrome Forecast
Issued by NWS

Home | Current Version | Previous Version | Text Only | Print | Product List | Glossary On
Versions: 1 2 3 4 5 6 7 8 9 10 11 12 13 14 15 16 17 18 19 20 21 22 23 24 25 26 27 28 29 30 31 32 33 34 35 36
000
FTUS41 KALY 251644 AAC
TAFPSF
TAF AMD
KPSF 251644Z 2517/2612 08011G18KT P6SM VCSH OVC015
     FM251800 09013G20KT 3SM -RA BR OVC007
     FM260700 05008KT 5SM -RA BR OVC007=

USA.gov is the U.S. government's official web portal to all federal, state and local government web resources and services.